Home > Products > Valid Products > TAF

000
FTUS41 KALY 301100
TAFALB
TAF
KALB 301138Z 3012/3112 19006KT P6SM FEW060 SCT200
      TEMPO 3012/3013 FEW007
     FM301500 19010G16KT P6SM SCT050 SCT200
     FM302300 19008KT P6SM BKN150
     FM310600 19004KT P6SM OVC060
     FM310900 19004KT 4SM BR OVC012=



000
FTUS41 KALY 301100
TAFPOU
TAF
KPOU 301138Z 3012/3112 23004KT P6SM SCT250
     FM301500 20007KT P6SM SCT050 SCT200
     FM302300 17004KT P6SM BKN150
     FM310600 17004KT P6SM OVC060
     FM310900 VRB02KT 4SM BR OVC020=



000
FTUS41 KALY 301100
TAFGFL
TAF
KGFL 301138Z 3012/3112 19004KT P6SM SCT200
     FM301500 19008KT P6SM SCT050 SCT150 BKN250
     FM302300 19004KT P6SM BKN150
     FM310600 19004KT 5SM BR OVC080
     FM310900 19004KT 3SM BR OVC015=



000
FTUS41 KALY 300500 RRA
TAFPOU
TAF
KPOU 300542Z 3006/3106 15003KT P6SM SCT250
      TEMPO 3007/3011 5SM BR
     FM301500 19007KT P6SM FEW050 SCT250=



000
FTUS41 KALY 300500 RRA
TAFGFL
TAF
KGFL 300542Z 3006/3106 00000KT 6SM BR SCT060
      TEMPO 3007/3011 2SM BR BKN006
     FM301200 19004KT P6SM SCT150 BKN250
     FM301500 19008KT P6SM SCT050 SCT150 BKN250=



000
FTUS41 KALY 300500 RRA
TAFALB
TAF
KALB 300542Z 3006/3106 17008KT P6SM FEW060 SCT250
     FM301500 18010G15KT P6SM SCT050 SCT150 BKN250=



000
FTUS41 KALY 300300 AAA
TAFGFL
TAF AMD
KGFL 300308Z 3003/3024 00000KT 3SM BR SKC
      TEMPO 3003/3007 1 1/2SM BR SCT002
     FM300700 00000KT 1SM BR BKN002
     FM301300 19007KT P6SM FEW050 SCT150 BKN250=



000
FTUS41 KALY 292300 RRA
TAFGFL
TAF
KGFL 292347Z 3000/3024 00000KT P6SM SKC
     FM300400 00000KT 3SM BR SKC
     FM300600 00000KT 2SM BR BKN002
     FM301300 19007KT P6SM FEW050 SCT150 BKN250=



000
FTUS41 KALY 292300 RRA
TAFPOU
TAF
KPOU 292347Z 3000/3024 VRB03KT P6SM SKC
     FM301200 00000KT 5SM BR SCT250
     FM301500 19005KT P6SM FEW050 BKN250=



000
FTUS41 KALY 292300 RRA
TAFALB
TAF
KALB 292347Z 3000/3024 00000KT P6SM FEW050 SCT280
     FM300600 17004KT P6SM SCT250
     FM301400 18010KT P6SM FEW050 SCT150 BKN250=



000
FTUS41 KALY 291700
TAFPOU
TAF
KPOU 291728Z 2918/3018 VRB04KT P6SM FEW045
     FM300000 00000KT P6SM SKC
     FM301300 19005KT P6SM FEW050 SCT150 BKN250=



000
FTUS41 KALY 291700
TAFGFL
TAF
KGFL 291728Z 2918/3018 14004KT P6SM SCT035
     FM300000 00000KT P6SM SKC
     FM300400 00000KT 3SM BR SKC
     FM300600 00000KT 2SM BR BKN002
     FM301300 19007KT P6SM FEW050 SCT150 BKN250=



000
FTUS41 KALY 291700
TAFALB
TAF
KALB 291728Z 2918/3018 VRB05KT P6SM FEW040
     FM300000 VRB03KT P6SM SKC
     FM300600 17004KT P6SM SCT250
     FM301300 18010KT P6SM FEW050 SCT150 BKN250=



000
FTUS41 KALY 291100
TAFPOU
TAF
KPOU 291139Z 2912/3012 00000KT P6SM SKC
     FM291300 VRB03KT P6SM FEW040 SCT250
     FM291800 34005KT P6SM SCT050
     FM300000 VRB03KT P6SM SKC=



000
FTUS41 KALY 291100
TAFALB
TAF
KALB 291139Z 2912/3012 00000KT P6SM FEW040
     FM291300 34004KT P6SM FEW040 SCT250
     FM291800 34005KT P6SM SCT050
     FM300000 VRB03KT P6SM SKC=



000
FTUS41 KALY 291100
TAFGFL
TAF
KGFL 291139Z 2912/3012 34005KT P6SM SKC
     FM291800 33005KT P6SM SCT050
     FM300000 00000KT P6SM SKC
     FM300300 00000KT 3SM BR SKC=



000
FTUS41 KALY 290800 AAA
TAFGFL
TAF AMD
KGFL 290800Z 2908/3006 34008KT P6SM SKC
      TEMPO 2908/2912 1/2SM FG VV002
     FM291200 VRB03KT P6SM FEW040 SCT250
     FM291800 33005KT P6SM SCT050
     FM300000 00000KT P6SM SKC
     FM300300 00000KT 3SM BR SKC=



000
FTUS41 KALY 290500
TAFALB
TAF
KALB 290520Z 2906/3006 09003KT P6SM FEW070
     FM291300 34004KT P6SM FEW040 SCT250
     FM291800 34005KT P6SM SCT050
     FM300000 VRB03KT P6SM SKC=



000
FTUS41 KALY 290500
TAFGFL
TAF
KGFL 290520Z 2906/3006 33006KT P6SM BKN060
     FM290800 00000KT 3SM BR SKC
      TEMPO 2908/2912 1/2SM FG VV002
     FM291200 VRB03KT P6SM FEW040 SCT250
     FM291800 33005KT P6SM SCT050
     FM300000 00000KT P6SM SKC
     FM300300 00000KT 3SM BR SKC=



000
FTUS41 KALY 290500
TAFPOU
TAF
KPOU 290520Z 2906/3006 00000KT P6SM SKC
     FM291300 VRB03KT P6SM FEW040 SCT250
     FM291800 34005KT P6SM SCT050
     FM300000 VRB03KT P6SM SKC=



000
FTUS41 KALY 290400 AAA
TAFGFL
TAF AMD
KGFL 290406Z 2904/2924 01004KT P6SM BKN070
     FM290600 00000KT 1SM BR VV002
     FM291200 VRB03KT P6SM FEW040 SCT250
     FM291800 33005KT P6SM SCT050=



000
FTUS41 KALY 282300 CCA
TAFPOU
TAF COR
KPOU 282342Z 2900/2924 31010KT P6SM SCT070
      TEMPO 2900/2903 31013G20KT BKN070
     FM290300 00000KT P6SM SKC
     FM291300 VRB03KT P6SM FEW040 SCT250
     FM291800 34005KT P6SM SCT050=



000
FTUS41 KALY 282300 CCA
TAFALB
TAF COR
KALB 282340Z 2900/2924 30010KT P6SM SCT070
      TEMPO 2900/2903 30013G20KT BKN070
     FM290300 33003KT P6SM SKC
     FM291300 34004KT P6SM FEW040 SCT250
     FM291800 34005KT P6SM SCT050=



000
FTUS41 KALY 282300
TAFALB
TAF
KALB 282337Z 2900/2924 30010KT P6SM SCT070
      TEMPO 2900/2903 29013G20KT
     FM290300 33003KT P6SM SKC
     FM291300 34004KT P6SM FEW040 SCT250
     FM291800 34005KT P6SM SCT050=



000
FTUS41 KALY 282300
TAFPOU
TAF
KPOU 282337Z 2900/2924 31010KT P6SM BKN070
      TEMPO 2900/2903 31013G20KT
     FM290300 00000KT P6SM SKC
     FM291300 VRB03KT P6SM FEW040 SCT250
     FM291800 34005KT P6SM SCT050=



000
FTUS41 KALY 282300
TAFGFL
TAF
KGFL 282337Z 2900/2924 33010KT P6SM OVC070
     FM290200 33005KT P6SM SCT070
     FM290400 00000KT 3SM BR SKC
     FM290600 00000KT 1SM BR VV002
     FM291200 VRB03KT P6SM FEW040 SCT250
     FM291800 33005KT P6SM SCT050=



000
FTUS41 KALY 281900 AAC
TAFALB
TAF AMD
KALB 281955Z 2820/2918 31012KT P6SM BKN080
     FM290000 31006KT P6SM SCT070
     FM290300 33003KT P6SM SKC
     FM291300 34004KT P6SM FEW040 SCT250=



000
FTUS41 KALY 281900 AAB
TAFALB
TAF AMD
KALB 281945Z 2820/2918 32012KT P6SM BKN080
     FM290000 31006KT P6SM SCT070
     FM290300 33003KT P6SM SKC
     FM291300 34004KT P6SM FEW040 SCT250=



000
FTUS41 KALY 281800 AAA
TAFALB
TAF AMD
KALB 281841Z 2819/2918 31012KT P6SM BKN080
     FM290000 31006KT P6SM SCT070
     FM290300 33003KT P6SM SKC
     FM291300 34004KT P6SM FEW040 SCT250=



000
FTUS41 KALY 281700
TAFALB
TAF
KALB 281720Z 2818/2918 33012KT P6SM BKN080
     FM290000 31006KT P6SM SCT070
     FM290300 33003KT P6SM SKC
     FM291300 34004KT P6SM FEW040 SCT250=



000
FTUS41 KALY 281700
TAFPOU
TAF
KPOU 281720Z 2818/2918 31010KT P6SM BKN070
     FM290000 00000KT P6SM SKC
     FM291300 35004KT P6SM FEW040 SCT250=



000
FTUS41 KALY 281700
TAFGFL
TAF
KGFL 281720Z 2818/2918 33012KT P6SM BKN080
     FM290000 32004KT P6SM SCT070
     FM290400 00000KT 3SM BR SKC
     FM290600 00000KT 1SM BR VV002
     FM291200 04003KT P6SM FEW040 SCT250=



000
FTUS41 KALY 281100
TAFPOU
TAF
KPOU 281134Z 2812/2912 00000KT P6SM SKC
     FM281500 33012KT P6SM SCT040
     FM290000 33004KT P6SM SKC=



000
FTUS41 KALY 281100
TAFGFL
TAF
KGFL 281134Z 2812/2912 31003KT P6SM BKN060
     FM281400 34012KT P6SM SCT060
     FM290000 32004KT P6SM SKC
     FM290300 00000KT 3SM BR SKC
     FM290600 00000KT 1/2SM FG VV002=



000
FTUS41 KALY 281100
TAFALB
TAF
KALB 281134Z 2812/2912 31006KT P6SM SCT060 SCT200
     FM281500 33012KT P6SM SCT040
     FM290000 31006KT P6SM SKC=



000
FTUS41 KALY 280900 AAC
TAFGFL
TAF AMD
KGFL 280904Z 2809/2906 00000KT 3SM BR SKC
      TEMPO 2809/2811 2SM BR BKN008
     FM281100 00000KT P6SM SCT050 SCT250
     FM281500 34012KT P6SM SCT050
     FM290000 32004KT P6SM SKC
     FM290300 00000KT 3SM BR SKC=



000
FTUS41 KALY 280800 AAB
TAFGFL
TAF AMD
KGFL 280856Z 2809/2906 00000KT 1SM BR VV002
      TEMPO 2809/2811 2SM BR BKN008
     FM281100 00000KT P6SM SCT050 SCT250
     FM281500 34012KT P6SM SCT050
     FM290000 32004KT P6SM SKC
     FM290300 00000KT 3SM BR SKC=



000
FTUS41 KALY 280600 AAA
TAFGFL
TAF AMD
KGFL 280654Z 2807/2906 00000KT 3SM BR SKC
      TEMPO 2808/2811 2SM BR BKN008
     FM281100 00000KT P6SM SCT050 SCT250
     FM281500 34012KT P6SM SCT050
     FM290000 32004KT P6SM SKC
     FM290300 00000KT 3SM BR SKC=



000
FTUS41 KALY 280500
TAFGFL
TAF
KGFL 280520Z 2806/2906 00000KT P6SM BKN035
      TEMPO 2808/2811 2SM BR BKN008
     FM281100 00000KT P6SM SCT050 SCT250
     FM281500 34012KT P6SM SCT050
     FM290000 32004KT P6SM SKC
     FM290300 00000KT 3SM BR SKC=



000
FTUS41 KALY 280500
TAFALB
TAF
KALB 280520Z 2806/2906 29008KT P6SM FEW050 SCT130
     FM280800 VRB03KT P6SM SCT040 SCT250
     FM281500 33012KT P6SM SCT040
     FM290000 31006KT P6SM SKC=



000
FTUS41 KALY 280500
TAFPOU
TAF
KPOU 280520Z 2806/2906 00000KT P6SM SKC
     FM280800 00000KT P6SM SCT250
     FM281500 33012KT P6SM SCT040
     FM290000 33004KT P6SM SKC=



000
FTUS41 KALY 272300 CCA
TAFPOU
TAF COR
KPOU 272334Z 2800/2824 28006KT P6SM VCSH BKN250
      TEMPO 2800/2801 4SM -TSRA BR BKN030CB
     FM280400 VRB03KT P6SM SCT050 SCT120 SCT250
     FM280800 00000KT P6SM SCT250
     FM281500 33012KT P6SM SCT040=



000
FTUS41 KALY 272300
TAFALB
TAF
KALB 272327Z 2800/2824 31008KT P6SM SCT050 BKN150
     FM280800 VRB03KT P6SM SCT040 SCT250
     FM281500 33012KT P6SM SCT040=



000
FTUS41 KALY 272300
TAFPOU
TAF
KPOU 272327Z 2800/2824 28006KT P6SM BKN250
     FM280400 VRB03KT P6SM SCT050 SCT120 SCT250
     FM280800 00000KT P6SM SCT250
     FM281500 33012KT P6SM SCT040=



000
FTUS41 KALY 272300
TAFGFL
TAF
KGFL 272327Z 2800/2824 28006KT P6SM SCT060 BKN200
     FM280400 32003KT P6SM SCT250
     FM281000 00000KT P6SM SCT050 SCT250
     FM281500 34012KT P6SM SCT050=



000
FTUS41 KALY 272100 AAA
TAFPOU
TAF AMD
KPOU 272150Z 2722/2818 28006KT P6SM VCSH BKN050 BKN100
      TEMPO 2722/2723 27012G19KT 4SM -TSRA BR BKN030CB
     FM280400 33003KT P6SM SCT050 SCT120 SCT250
     FM280800 00000KT P6SM SCT250
     FM281400 33008KT P6SM SCT040=



000
FTUS41 KALY 271700
TAFALB
TAF
KALB 271736Z 2718/2818 19004KT P6SM VCSH BKN035 OVC040
     FM272100 30008KT P6SM BKN040 BKN100
     FM280800 VRB03KT P6SM SCT040 SCT250
     FM281400 33010KT P6SM SCT040=



000
FTUS41 KALY 271700
TAFGFL
TAF
KGFL 271736Z 2718/2818 20010KT P6SM SCT050 BKN060
     FM272100 28006KT P6SM BKN060 BKN200
     FM280400 34003KT P6SM BKN050
     FM280700 00000KT P6SM SCT050 SCT250
     FM281300 35008KT P6SM SCT050=



000
FTUS41 KALY 271700
TAFPOU
TAF
KPOU 271736Z 2718/2818 18004KT P6SM SCT050 SCT250
     FM272100 28005KT P6SM VCSH BKN050 BKN100
     FM280400 33003KT P6SM SCT050 SCT120 SCT250
     FM280800 00000KT P6SM SCT250
     FM281400 33008KT P6SM SCT040=



000
FTUS41 KALY 271300 AAA
TAFALB
TAF AMD
KALB 271356Z 2714/2812 18006KT P6SM FEW050 FEW070 BKN250
      TEMPO 2714/2715 BKN025
     FM271500 18005KT P6SM SCT050 BKN120
     FM271800 27009KT P6SM VCSH BKN050
     FM272100 30010KT P6SM SCT050
     FM280100 31008KT P6SM SCT250
     FM280500 VRB03KT P6SM SCT250=



    US Dept of Commerce
    National Oceanic and Atmospheric Administration
    National Weather Service
    1325 East West Highway
    Silver Spring, MD 20910
    Page Author: NWS Internet Services Team
Disclaimer
Information Quality
Credits
Glossary
Privacy Policy
Freedom of Information Act (FOIA)
About Us
Career Opportunities